createdAt,value
2022-12-01T00:01:57.075Z,68.92
2022-12-01T00:04:23.476Z,69.44
2022-12-01T00:06:49.759Z,69.91
2022-12-01T00:09:19.702Z,69.19
2022-12-01T00:11:46.400Z,69.65
2022-12-01T00:14:12.701Z,69.40
2022-12-01T00:16:39.115Z,70.17
2022-12-01T00:19:05.478Z,69.92
2022-12-01T00:21:31.793Z,69.80
2022-12-01T00:23:58.088Z,70.04
2022-12-01T00:26:24.405Z,69.66
2022-12-01T00:28:50.705Z,70.06
2022-12-01T00:31:17.139Z,69.91
2022-12-01T00:33:43.600Z,69.29
2022-12-01T00:36:09.905Z,70.08
2022-12-01T00:38:36.212Z,69.52
2022-12-01T00:41:02.520Z,69.68
2022-12-01T00:43:28.839Z,70.13
2022-12-01T00:45:55.223Z,69.78
2022-12-01T00:48:21.568Z,69.90
2022-12-01T00:50:47.855Z,68.91
2022-12-01T00:53:14.139Z,69.86
2022-12-01T00:55:40.454Z,69.00
2022-12-01T00:58:06.758Z,70.01
2022-12-01T01:00:33.076Z,68.78
2022-12-01T01:02:59.397Z,68.48
2022-12-01T01:05:25.712Z,68.90
2022-12-01T01:07:52.059Z,68.82
2022-12-01T01:10:18.409Z,68.73
2022-12-01T01:12:44.707Z,68.52
2022-12-01T01:15:11.003Z,69.06
2022-12-01T01:17:37.306Z,68.64
2022-12-01T01:20:03.595Z,69.48
2022-12-01T01:22:29.889Z,68.92
2022-12-01T01:24:56.203Z,67.58
2022-12-01T01:27:22.500Z,68.36
2022-12-01T01:29:48.920Z,68.37
2022-12-01T01:32:15.400Z,68.50
2022-12-01T01:34:41.699Z,68.84
2022-12-01T01:37:07.999Z,69.63
2022-12-01T01:39:34.348Z,69.01
2022-12-01T01:42:00.635Z,68.94
2022-12-01T01:44:26.933Z,68.50
2022-12-01T01:46:53.255Z,69.34
2022-12-01T01:49:19.544Z,68.77
2022-12-01T01:51:45.844Z,68.36
2022-12-01T01:54:12.155Z,69.16
2022-12-01T01:56:38.463Z,69.57
2022-12-01T01:59:04.781Z,69.20
2022-12-01T02:01:31.249Z,69.47
2022-12-01T02:03:57.665Z,69.26
2022-12-01T02:06:23.974Z,68.77
2022-12-01T02:08:50.293Z,68.75
2022-12-01T02:11:16.603Z,68.16
2022-12-01T02:13:42.907Z,69.01
2022-12-01T02:16:09.222Z,67.45
2022-12-01T02:18:35.526Z,67.93
2022-12-01T02:21:01.837Z,67.36
2022-12-01T02:23:28.159Z,66.77
2022-12-01T02:25:54.447Z,68.26
2022-12-01T02:28:20.746Z,67.15
2022-12-01T02:30:47.085Z,66.48
2022-12-01T02:33:13.447Z,67.47
2022-12-01T02:35:39.745Z,67.46
2022-12-01T02:38:06.067Z,66.98
2022-12-01T02:40:32.363Z,67.35
2022-12-01T02:42:58.663Z,66.54
2022-12-01T02:45:25.019Z,66.31
2022-12-01T02:47:51.316Z,67.09
2022-12-01T02:50:17.613Z,66.59
2022-12-01T02:52:43.928Z,66.69
2022-12-01T02:55:10.226Z,65.78
2022-12-01T02:57:36.537Z,66.27
2022-12-01T03:00:02.848Z,65.60
2022-12-01T03:02:29.183Z,66.65
2022-12-01T03:04:55.535Z,66.53
2022-12-01T03:07:21.931Z,66.57
2022-12-01T03:09:48.511Z,66.69
2022-12-01T03:12:15.016Z,66.90
2022-12-01T03:14:41.335Z,66.73
2022-12-01T03:17:07.646Z,66.38
2022-12-01T03:19:33.967Z,67.80
2022-12-01T03:22:00.308Z,66.50
2022-12-01T03:24:26.602Z,67.78
2022-12-01T03:26:52.916Z,67.03
2022-12-01T03:29:19.239Z,66.75
2022-12-01T03:31:45.604Z,66.32
2022-12-01T03:34:11.993Z,66.02
2022-12-01T03:36:38.310Z,66.05
2022-12-01T03:39:04.611Z,66.03
2022-12-01T03:41:30.909Z,66.00
2022-12-01T03:43:57.243Z,66.64
2022-12-01T03:46:23.626Z,66.34
2022-12-01T03:48:50.040Z,66.20
2022-12-01T03:51:16.407Z,66.28
2022-12-01T03:53:42.713Z,67.20
2022-12-01T03:56:09.167Z,66.56
2022-12-01T03:58:35.491Z,67.23
2022-12-01T04:01:01.789Z,66.37
2022-12-01T04:03:28.093Z,67.68
2022-12-01T04:05:54.476Z,67.11
2022-12-01T04:08:20.771Z,68.08
2022-12-01T04:10:47.077Z,68.00
2022-12-01T04:13:13.410Z,66.70
2022-12-01T04:15:39.786Z,67.88
2022-12-01T04:18:06.143Z,67.06
2022-12-01T04:20:32.468Z,67.03
2022-12-01T04:22:58.756Z,66.93
2022-12-01T04:25:25.096Z,66.43
2022-12-01T04:27:51.405Z,66.46
2022-12-01T04:30:17.705Z,66.03
2022-12-01T04:32:44.010Z,66.25
2022-12-01T04:35:10.348Z,66.26
2022-12-01T04:37:36.656Z,66.68
2022-12-01T04:40:02.984Z,67.69
2022-12-01T04:42:29.309Z,67.65
2022-12-01T04:44:55.612Z,66.97
2022-12-01T04:47:21.920Z,67.36
2022-12-01T04:49:48.462Z,66.72
2022-12-01T04:52:14.912Z,67.52
2022-12-01T04:54:41.212Z,66.97
2022-12-01T04:57:07.577Z,68.29
2022-12-01T04:59:33.879Z,67.64
2022-12-01T05:02:00.282Z,67.44
2022-12-01T05:04:26.642Z,67.08
2022-12-01T05:06:52.950Z,67.38
2022-12-01T05:09:19.254Z,68.49
2022-12-01T05:11:45.585Z,67.62
2022-12-01T05:14:11.885Z,67.95
2022-12-01T05:16:38.253Z,68.13
2022-12-01T05:19:04.635Z,67.50
2022-12-01T05:21:30.940Z,68.11
2022-12-01T05:23:57.246Z,68.31
2022-12-01T05:26:23.582Z,67.02
2022-12-01T05:28:49.899Z,67.52
2022-12-01T05:31:16.225Z,68.04
2022-12-01T05:33:42.578Z,68.95
2022-12-01T05:36:08.879Z,68.25
2022-12-01T05:38:35.182Z,68.71
2022-12-01T05:41:01.504Z,67.30
2022-12-01T05:43:29.551Z,67.18
2022-12-01T05:45:56.189Z,67.53
2022-12-01T05:48:22.602Z,67.66
2022-12-01T05:50:48.913Z,67.23
2022-12-01T05:53:15.221Z,66.62
2022-12-01T05:55:41.668Z,66.74
2022-12-01T05:58:07.969Z,66.13
2022-12-01T06:00:34.277Z,66.49
2022-12-01T06:03:00.657Z,66.44
2022-12-01T06:05:27.068Z,66.23
2022-12-01T06:07:53.408Z,65.94
2022-12-01T06:10:19.754Z,65.95
2022-12-01T06:12:46.063Z,66.07
2022-12-01T06:15:12.372Z,65.49
2022-12-01T06:17:40.400Z,66.21
2022-12-01T06:20:06.911Z,65.01
2022-12-01T06:22:33.218Z,66.50
2022-12-01T06:24:59.545Z,65.84
2022-12-01T06:27:25.838Z,65.57
2022-12-01T06:29:52.499Z,66.13
2022-12-01T06:32:19.320Z,65.49
2022-12-01T06:34:45.628Z,66.15
2022-12-01T06:37:11.938Z,64.99
2022-12-01T06:39:38.265Z,64.98
2022-12-01T06:42:04.565Z,65.87
2022-12-01T06:44:30.863Z,65.38
2022-12-01T06:46:57.187Z,66.63
2022-12-01T06:49:23.507Z,65.63
2022-12-01T06:51:49.826Z,65.66
2022-12-01T06:54:16.149Z,66.11
2022-12-01T06:56:42.460Z,65.18
2022-12-01T06:59:08.939Z,64.55
2022-12-01T07:01:35.653Z,65.29
2022-12-01T07:04:02.026Z,64.23
2022-12-01T07:06:28.331Z,64.66
2022-12-01T07:08:54.694Z,65.83
2022-12-01T07:11:21.001Z,64.99
2022-12-01T07:13:47.317Z,65.52
2022-12-01T07:16:13.693Z,65.39
2022-12-01T07:18:40.045Z,65.08
2022-12-01T07:21:06.349Z,64.86
2022-12-01T07:23:32.665Z,64.88
2022-12-01T07:25:58.978Z,64.61
2022-12-01T07:28:25.284Z,65.40
2022-12-01T07:30:51.661Z,65.39
2022-12-01T07:33:17.988Z,64.38
2022-12-01T07:35:44.294Z,65.25
2022-12-01T07:38:10.610Z,64.45
2022-12-01T07:40:36.903Z,64.69
2022-12-01T07:43:03.211Z,64.94
2022-12-01T07:45:29.546Z,64.70
2022-12-01T07:47:55.857Z,64.64
2022-12-01T07:50:22.173Z,65.22
2022-12-01T07:52:48.513Z,64.21
2022-12-01T07:55:14.814Z,64.44
2022-12-01T07:57:41.126Z,64.91
2022-12-01T08:00:07.460Z,64.45
2022-12-01T08:02:33.783Z,65.20
2022-12-01T08:05:00.113Z,64.80
2022-12-01T08:07:29.863Z,64.88
2022-12-01T08:09:56.411Z,65.12
2022-12-01T08:12:22.735Z,65.03
2022-12-01T08:14:49.100Z,65.04
2022-12-01T08:17:15.403Z,65.08
2022-12-01T08:19:41.706Z,64.87
2022-12-01T08:22:08.047Z,64.61
2022-12-01T08:24:34.358Z,65.37
2022-12-01T08:27:00.658Z,65.65
2022-12-01T08:29:26.970Z,65.75
2022-12-01T08:31:53.281Z,65.75
2022-12-01T08:34:19.631Z,65.01
2022-12-01T08:36:45.939Z,65.37
2022-12-01T08:39:12.257Z,64.86
2022-12-01T08:41:38.561Z,64.26
2022-12-01T08:44:04.889Z,64.85
2022-12-01T08:46:31.263Z,64.01
2022-12-01T08:48:58.070Z,64.26
2022-12-01T08:51:24.617Z,64.16
2022-12-01T08:53:50.911Z,64.31
2022-12-01T08:56:17.287Z,64.68
2022-12-01T08:58:43.608Z,63.56
2022-12-01T09:01:09.926Z,64.01
2022-12-01T09:03:36.234Z,63.71
2022-12-01T09:06:02.566Z,63.72
2022-12-01T09:08:28.873Z,63.84
2022-12-01T09:10:55.184Z,64.26
2022-12-01T09:13:21.505Z,63.59
2022-12-01T09:15:47.963Z,64.10
2022-12-01T09:18:14.272Z,63.69
2022-12-01T09:20:40.619Z,64.15
2022-12-01T09:23:06.930Z,63.49
2022-12-01T09:25:33.248Z,63.37
2022-12-01T09:27:59.582Z,63.42
2022-12-01T09:30:25.946Z,64.51
2022-12-01T09:32:52.294Z,68.11
2022-12-01T09:35:23.121Z,66.39
2022-12-01T09:37:49.793Z,68.57
2022-12-01T09:40:16.125Z,69.97
2022-12-01T09:42:42.463Z,70.25
2022-12-01T09:45:10.101Z,68.79
2022-12-01T09:47:36.407Z,69.70
2022-12-01T09:50:02.732Z,69.44
2022-12-01T09:52:29.038Z,70.14
2022-12-01T09:54:55.408Z,68.89
2022-12-01T09:57:21.733Z,68.83
2022-12-01T09:59:48.323Z,68.49
2022-12-01T10:02:14.820Z,69.13
2022-12-01T10:04:41.170Z,69.36
2022-12-01T10:07:07.490Z,68.72
2022-12-01T10:09:33.792Z,69.10
2022-12-01T10:12:00.139Z,68.38
2022-12-01T10:14:26.699Z,67.96
2022-12-01T10:16:53.034Z,69.07
2022-12-01T10:19:19.355Z,68.61
2022-12-01T10:21:45.654Z,68.95
2022-12-01T10:24:11.962Z,68.13
2022-12-01T10:26:38.335Z,68.80
2022-12-01T10:29:04.641Z,68.41
2022-12-01T10:31:30.992Z,68.03
2022-12-01T10:33:57.346Z,66.97
2022-12-01T10:36:23.657Z,67.13
2022-12-01T10:38:49.972Z,68.73
2022-12-01T10:41:16.293Z,67.48
2022-12-01T10:43:42.601Z,68.15
2022-12-01T10:46:08.963Z,67.64
2022-12-01T10:48:35.298Z,68.34
2022-12-01T10:51:01.600Z,68.15
2022-12-01T10:53:27.968Z,67.08
2022-12-01T10:55:54.300Z,67.15
2022-12-01T10:58:20.621Z,67.53
2022-12-01T11:01:02.555Z,67.62
2022-12-01T11:03:29.280Z,67.54
2022-12-01T11:05:55.702Z,67.49
2022-12-01T11:08:22.017Z,67.75
2022-12-01T11:10:48.339Z,67.37
2022-12-01T11:13:14.651Z,68.10
2022-12-01T11:15:40.955Z,68.19
2022-12-01T11:18:07.288Z,67.98
2022-12-01T11:20:33.679Z,66.99
2022-12-01T11:23:03.051Z,67.30
2022-12-01T11:25:29.401Z,68.11
2022-12-01T11:27:55.738Z,69.46
2022-12-01T11:30:22.052Z,68.51
2022-12-01T11:32:48.404Z,68.47
2022-12-01T11:35:14.708Z,68.76
2022-12-01T11:37:42.019Z,67.41
2022-12-01T11:40:08.373Z,68.55
2022-12-01T11:42:34.688Z,67.69
2022-12-01T11:45:01.002Z,66.98
2022-12-01T11:47:27.346Z,67.09
2022-12-01T11:49:53.950Z,66.45
2022-12-01T11:52:20.440Z,66.66
2022-12-01T11:54:46.747Z,66.68
2022-12-01T11:57:33.140Z,67.23
2022-12-01T11:59:59.344Z,66.54
2022-12-01T12:02:25.717Z,65.83
2022-12-01T12:04:52.053Z,65.98
2022-12-01T12:07:18.530Z,66.00
2022-12-01T12:09:45.331Z,65.63
2022-12-01T12:12:11.722Z,66.28
2022-12-01T12:14:38.043Z,66.14
2022-12-01T12:17:04.339Z,66.02
2022-12-01T12:19:34.260Z,66.23
2022-12-01T12:22:11.736Z,65.88
2022-12-01T12:24:38.053Z,66.38
2022-12-01T12:27:04.352Z,66.39
2022-12-01T12:29:30.674Z,66.37
2022-12-01T12:31:56.990Z,67.24
2022-12-01T12:34:23.295Z,67.14
2022-12-01T12:36:49.674Z,65.83
2022-12-01T12:39:16.920Z,66.14
2022-12-01T12:41:43.487Z,66.04
2022-12-01T12:44:09.864Z,66.14
2022-12-01T12:46:36.202Z,65.42
2022-12-01T12:51:48.879Z,65.99
2022-12-01T12:54:15.230Z,65.71
2022-12-01T12:56:41.601Z,67.09
2022-12-01T12:59:07.944Z,65.84
2022-12-01T13:01:34.434Z,65.89
2022-12-01T13:04:00.823Z,66.16
2022-12-01T13:06:27.160Z,65.90
2022-12-01T13:08:53.499Z,66.07
2022-12-01T13:11:19.820Z,65.28
2022-12-01T13:13:46.148Z,66.02
2022-12-01T13:16:12.946Z,65.58
2022-12-01T13:18:39.298Z,65.30
2022-12-01T13:21:05.658Z,65.60
2022-12-01T13:23:31.984Z,65.24
2022-12-01T13:25:58.301Z,65.37
2022-12-01T13:28:24.642Z,65.33
2022-12-01T13:30:51.004Z,65.54
2022-12-01T13:33:17.321Z,65.27
2022-12-01T13:35:43.659Z,66.32
2022-12-01T13:38:10.024Z,65.64
2022-12-01T13:40:36.345Z,65.08
2022-12-01T13:43:08.850Z,64.91
2022-12-01T13:45:37.048Z,64.95
2022-12-01T13:48:03.369Z,65.35
2022-12-01T13:50:29.673Z,65.77
2022-12-01T13:52:56.008Z,65.74
2022-12-01T13:55:22.342Z,66.15
2022-12-01T13:57:48.676Z,65.84
2022-12-01T14:00:15.003Z,65.73
2022-12-01T14:02:41.486Z,65.47
2022-12-01T14:05:07.937Z,66.95
2022-12-01T14:07:34.309Z,67.16
2022-12-01T14:10:00.706Z,65.97
2022-12-01T14:12:27.014Z,66.87
2022-12-01T14:14:53.594Z,66.56
2022-12-01T14:17:20.175Z,67.57
2022-12-01T14:19:46.496Z,68.26
2022-12-01T14:22:12.797Z,68.06
2022-12-01T14:24:39.121Z,68.22
2022-12-01T14:27:05.422Z,67.69
2022-12-01T14:29:31.741Z,67.50
2022-12-01T14:31:58.066Z,67.46
2022-12-01T14:34:24.384Z,68.82
2022-12-01T14:36:50.702Z,67.87
2022-12-01T14:39:17.072Z,67.78
2022-12-01T14:41:43.395Z,67.40
2022-12-01T14:44:09.707Z,68.18
2022-12-01T14:46:36.175Z,67.82
2022-12-01T14:49:04.406Z,67.59
2022-12-01T14:51:30.721Z,66.64
2022-12-01T14:53:57.055Z,66.88
2022-12-01T14:56:23.363Z,66.67
2022-12-01T14:58:49.675Z,66.11
2022-12-01T15:01:16.082Z,66.71
2022-12-01T15:03:42.485Z,67.43
2022-12-01T15:06:08.800Z,67.31
2022-12-01T15:09:10.690Z,66.78
2022-12-01T15:11:21.422Z,66.04
2022-12-01T15:13:47.810Z,66.38
2022-12-01T15:16:14.204Z,65.77
2022-12-01T15:18:41.715Z,66.13
2022-12-01T15:21:08.042Z,65.92
2022-12-01T15:23:34.412Z,65.91
2022-12-01T15:50:58.438Z,66.11
2022-12-01T15:53:28.705Z,66.63
2022-12-01T16:10:16.202Z,66.53
2022-12-01T16:20:54.084Z,65.81
2022-12-01T16:23:20.399Z,66.58
2022-12-01T16:25:46.710Z,66.52
2022-12-01T16:28:13.042Z,66.05
2022-12-01T16:30:39.401Z,67.13
2022-12-01T16:33:05.777Z,66.89
2022-12-01T16:35:32.159Z,65.72
2022-12-01T16:37:58.463Z,66.27
2022-12-01T16:40:24.764Z,66.76
2022-12-01T16:42:51.097Z,67.15
2022-12-01T16:45:17.396Z,67.27
2022-12-01T16:47:43.708Z,66.21
2022-12-01T16:50:10.060Z,66.92
2022-12-01T16:52:44.175Z,67.14
2022-12-01T16:55:11.490Z,67.06
2022-12-01T16:57:37.797Z,67.35
2022-12-01T17:00:04.211Z,66.93
2022-12-01T17:02:30.599Z,66.44
2022-12-01T17:04:56.928Z,67.14
2022-12-01T17:07:23.242Z,66.86
2022-12-01T17:09:49.580Z,67.06
2022-12-01T17:12:15.882Z,67.15
2022-12-01T17:14:42.174Z,66.47
2022-12-01T17:17:08.473Z,67.74
2022-12-01T17:19:34.778Z,68.09
2022-12-01T17:22:01.066Z,66.97
2022-12-01T17:24:27.378Z,66.95
2022-12-01T17:26:53.696Z,67.59
2022-12-01T17:29:20.031Z,68.06
2022-12-01T17:31:46.374Z,68.42
2022-12-01T17:34:12.681Z,68.22
2022-12-01T17:36:38.994Z,69.04
2022-12-01T17:39:05.426Z,69.21
2022-12-01T17:41:31.747Z,69.12
2022-12-01T17:43:58.063Z,67.92
2022-12-01T17:46:24.458Z,68.72
2022-12-01T17:48:50.800Z,68.87
2022-12-01T17:51:17.147Z,67.88
2022-12-01T17:53:43.524Z,68.07
2022-12-01T17:56:09.815Z,68.73
2022-12-01T17:58:36.116Z,68.75
2022-12-01T18:01:02.442Z,68.83
2022-12-01T18:03:28.751Z,68.75
2022-12-01T18:05:55.057Z,68.06
2022-12-01T18:08:21.391Z,69.21
2022-12-01T18:10:47.701Z,68.59
2022-12-01T18:13:14.007Z,68.68
2022-12-01T18:15:40.376Z,68.88
2022-12-01T18:18:06.715Z,68.75
2022-12-01T18:20:33.018Z,68.97
2022-12-01T18:22:59.344Z,68.07
2022-12-01T18:25:25.665Z,68.11
2022-12-01T18:27:51.975Z,68.34
2022-12-01T18:30:18.305Z,68.24
2022-12-01T18:32:44.641Z,67.99
2022-12-01T18:35:10.939Z,68.63
2022-12-01T18:37:37.279Z,68.60
2022-12-01T18:40:03.584Z,68.52
2022-12-01T18:42:29.883Z,68.43
2022-12-01T18:44:56.207Z,69.33
2022-12-01T18:47:22.520Z,70.11
2022-12-01T18:49:48.830Z,70.17
2022-12-01T18:52:15.162Z,69.98
2022-12-01T18:54:41.477Z,69.77
2022-12-01T18:57:07.785Z,68.62
2022-12-01T18:59:34.143Z,69.10
2022-12-01T19:02:00.457Z,68.46
2022-12-01T19:04:26.768Z,69.72
2022-12-01T19:06:53.095Z,69.09
2022-12-01T19:09:19.403Z,69.54
2022-12-01T19:11:45.711Z,69.66
2022-12-01T19:14:12.049Z,69.43
2022-12-01T19:16:38.432Z,69.14
2022-12-01T19:19:04.772Z,69.75
2022-12-01T19:21:31.103Z,69.16
2022-12-01T19:23:57.417Z,69.41
2022-12-01T19:26:23.733Z,68.71
2022-12-01T19:28:50.093Z,69.24
2022-12-01T19:31:16.533Z,68.34
2022-12-01T19:33:42.908Z,69.61
2022-12-01T19:36:09.219Z,70.05
2022-12-01T19:38:35.519Z,69.72
2022-12-01T19:41:01.820Z,70.49
2022-12-01T19:43:28.152Z,69.67
2022-12-01T19:45:54.505Z,70.22
2022-12-01T19:48:20.834Z,69.31
2022-12-01T19:50:47.151Z,70.73
2022-12-01T19:53:13.494Z,70.84
2022-12-01T19:55:39.806Z,70.23
2022-12-01T19:58:06.125Z,71.22
2022-12-01T20:00:32.831Z,69.80
2022-12-01T20:02:59.219Z,70.55
2022-12-01T20:05:25.616Z,70.43
2022-12-01T20:07:51.962Z,70.06
2022-12-01T20:10:18.333Z,69.50
2022-12-01T20:12:44.681Z,70.03
2022-12-01T20:15:11.043Z,69.66
2022-12-01T20:17:37.341Z,69.04
2022-12-01T20:20:03.654Z,69.68
2022-12-01T20:22:29.955Z,69.02
2022-12-01T20:24:56.256Z,69.82
2022-12-01T20:27:22.563Z,69.06
2022-12-01T20:29:48.855Z,68.91
2022-12-01T20:32:19.250Z,69.14
2022-12-01T20:34:48.639Z,68.73
2022-12-01T20:37:15.257Z,69.17
2022-12-01T20:39:41.552Z,69.15
2022-12-01T20:42:07.863Z,69.59
2022-12-01T20:44:34.263Z,69.11
2022-12-01T20:47:00.574Z,68.39
2022-12-01T20:49:26.890Z,69.80
2022-12-01T20:51:53.186Z,70.00
2022-12-01T20:54:28.316Z,69.31
2022-12-01T20:56:55.335Z,68.74
2022-12-01T20:59:21.640Z,68.31
2022-12-01T21:01:47.930Z,69.44
2022-12-01T21:04:14.252Z,70.05
2022-12-01T21:06:40.547Z,68.65
2022-12-01T21:09:06.842Z,68.37
2022-12-01T21:11:33.200Z,68.89
2022-12-01T21:13:59.506Z,67.75
2022-12-01T21:16:25.828Z,68.23
2022-12-01T21:18:52.194Z,67.68
2022-12-01T21:21:18.522Z,68.08
2022-12-01T21:23:44.833Z,67.74
2022-12-01T21:26:11.164Z,68.17
2022-12-01T21:28:37.477Z,68.11
2022-12-01T21:31:03.845Z,68.01
2022-12-01T21:33:30.214Z,67.35
2022-12-01T21:35:56.521Z,67.69
2022-12-01T21:38:22.846Z,67.49
2022-12-01T21:40:49.176Z,67.46
2022-12-01T21:43:15.482Z,69.50
2022-12-01T21:45:41.847Z,67.48
2022-12-01T21:48:08.236Z,68.28
2022-12-01T21:50:34.557Z,68.76
2022-12-01T21:53:00.867Z,69.18
2022-12-01T21:55:27.198Z,69.07
2022-12-01T21:57:53.500Z,69.29
2022-12-01T22:00:19.813Z,69.14
2022-12-01T22:02:46.213Z,69.45
2022-12-01T22:05:12.661Z,69.58
2022-12-01T22:07:38.996Z,70.37
2022-12-01T22:10:09.126Z,69.41
2022-12-01T22:12:35.670Z,69.21
2022-12-01T22:15:01.995Z,69.71
2022-12-01T22:17:28.367Z,69.46
2022-12-01T22:19:54.676Z,69.64
2022-12-01T22:22:20.980Z,69.61
2022-12-01T22:24:47.306Z,70.22
2022-12-01T22:27:13.624Z,71.50
2022-12-01T22:29:39.922Z,70.67
2022-12-01T22:32:06.247Z,70.36
2022-12-01T22:34:32.544Z,71.04
2022-12-01T22:36:58.836Z,70.84
2022-12-01T22:39:25.159Z,70.44
2022-12-01T22:41:51.474Z,71.19
2022-12-01T22:44:17.776Z,71.15
2022-12-01T22:46:44.165Z,71.53
2022-12-01T22:49:10.529Z,71.41
2022-12-01T22:51:36.841Z,71.98
2022-12-01T22:54:03.178Z,71.13
2022-12-01T22:56:29.496Z,70.97
2022-12-01T22:58:55.796Z,70.45
2022-12-01T23:01:22.177Z,72.32
2022-12-01T23:03:48.536Z,72.91
2022-12-01T23:06:14.839Z,72.87
2022-12-01T23:08:41.156Z,72.99
2022-12-01T23:11:07.476Z,71.55
2022-12-01T23:13:33.789Z,71.23
2022-12-01T23:16:00.214Z,72.21
2022-12-01T23:18:26.591Z,72.51
2022-12-01T23:20:52.903Z,71.73
2022-12-01T23:23:19.334Z,71.37
2022-12-01T23:25:45.637Z,71.35
2022-12-01T23:28:11.947Z,71.07
2022-12-01T23:30:38.276Z,71.41
2022-12-01T23:33:04.591Z,69.91
2022-12-01T23:35:30.896Z,70.38
2022-12-01T23:37:57.215Z,70.78
2022-12-01T23:40:23.511Z,70.00
2022-12-01T23:42:49.817Z,72.07
2022-12-01T23:45:16.133Z,70.17
2022-12-01T23:47:42.467Z,70.65
2022-12-01T23:50:08.782Z,70.83
2022-12-01T23:52:35.107Z,70.40
2022-12-01T23:55:01.420Z,70.68
2022-12-01T23:57:27.728Z,70.54
2022-12-01T23:59:54.071Z,70.55
